Time;durP1;ratioP1;P1;durP2;ratioP2;P2;SDS_P1;SDS_P2;PMS_P1;PMS_P2;Temp;Humidity;BMP_temperature;BMP_pressure;BME280_temperature;BME280_humidity;BME280_pressure;Samples;Min_cycle;Max_cycle;Signal;HPM_P1;HPM_P2
2022/07/27 01:40:22;;;;;;;1999.90;999.90;;;;;;;;;;5258888;23;20243;-70
2022/07/27 01:43:07;;;;;;;1999.90;999.90;;;;;;;;;;5001824;28;20762;-69
2022/07/27 01:45:52;;;;;;;1999.90;999.90;;;;;;;;;;5001673;28;20610;-70
2022/07/27 01:48:37;;;;;;;1999.90;999.90;;;;;;;;;;4995583;28;20215;-69
2022/07/27 01:51:22;;;;;;;1999.90;999.90;;;;;;;;;;4989588;28;20210;-69
2022/07/27 01:54:07;;;;;;;1999.90;999.90;;;;;;;;;;4991217;28;20326;-69
2022/07/27 01:56:53;;;;;;;1999.90;999.90;;;;;;;;;;4991350;28;20770;-69
2022/07/27 01:59:38;;;;;;;1999.90;999.90;;;;;;;;;;4989151;28;20823;-69
2022/07/27 02:02:23;;;;;;;1999.90;999.90;;;;;;;;;;4989759;28;20418;-70
2022/07/27 02:05:10;;;;;;;1999.90;999.90;;;;;;;;;;4990854;28;20238;-69
2022/07/27 02:07:55;;;;;;;1999.90;999.90;;;;;;;;;;4990692;28;20219;-69
2022/07/27 02:12:34;;;;;;;1999.90;999.90;;;;;;;;;;4989330;28;20227;-69
2022/07/27 02:13:46;;;;;;;1999.90;999.90;;;;;;;;;;4990598;28;20202;-69
2022/07/27 02:16:31;;;;;;;1999.90;999.90;;;;;;;;;;4990992;28;20609;-69
2022/07/27 02:19:16;;;;;;;1999.90;999.90;;;;;;;;;;4990702;28;20346;-70
2022/07/27 02:22:01;;;;;;;1999.90;999.90;;;;;;;;;;4991318;28;20338;-69
2022/07/27 02:24:46;;;;;;;1999.90;999.90;;;;;;;;;;4994919;28;20255;-68
2022/07/27 02:27:31;;;;;;;1999.90;999.90;;;;;;;;;;4994856;28;20338;-69
2022/07/27 02:30:18;;;;;;;1999.90;999.90;;;;;;;;;;5002088;28;20227;-69
2022/07/27 02:33:03;;;;;;;1999.90;999.90;;;;;;;;;;5000668;28;20849;-69
2022/07/27 02:35:48;;;;;;;1999.90;999.90;;;;;;;;;;5000236;28;20227;-69
2022/07/27 02:38:33;;;;;;;1999.90;999.90;;;;;;;;;;4991560;28;20482;-70
2022/07/27 02:41:18;;;;;;;1999.90;999.90;;;;;;;;;;4976308;28;20698;-70
2022/07/27 02:44:03;;;;;;;1999.90;999.90;;;;;;;;;;4976384;28;20208;-69
2022/07/27 02:46:49;;;;;;;1999.90;999.90;;;;;;;;;;4976154;28;20223;-70
2022/07/27 02:49:34;;;;;;;1999.90;999.90;;;;;;;;;;4975543;28;20757;-69
2022/07/27 02:52:19;;;;;;;1999.90;999.90;;;;;;;;;;4975834;28;20317;-70
2022/07/27 02:55:04;;;;;;;1999.90;999.90;;;;;;;;;;4991917;28;20934;-70
2022/07/27 02:57:49;;;;;;;1999.90;999.90;;;;;;;;;;4975476;28;20589;-68
2022/07/27 03:00:35;;;;;;;1999.90;999.90;;;;;;;;;;4975660;28;20231;-70
2022/07/27 03:03:21;;;;;;;1999.90;999.90;;;;;;;;;;4975801;28;20287;-70
2022/07/27 03:06:06;;;;;;;1999.90;999.90;;;;;;;;;;4975754;28;20581;-70
2022/07/27 03:08:51;;;;;;;1999.90;999.90;;;;;;;;;;4983234;28;20246;-70
2022/07/27 03:11:36;;;;;;;1999.90;999.90;;;;;;;;;;4993360;28;20677;-69
2022/07/27 03:14:21;;;;;;;1999.90;999.90;;;;;;;;;;4977815;28;20281;-70
2022/07/27 03:17:06;;;;;;;1999.90;999.90;;;;;;;;;;4975503;28;20203;-70
2022/07/27 03:19:53;;;;;;;1999.90;999.90;;;;;;;;;;4975165;28;20238;-69
2022/07/27 03:22:37;;;;;;;1999.90;999.90;;;;;;;;;;4985752;28;20218;-70
2022/07/27 03:25:22;;;;;;;1999.90;999.90;;;;;;;;;;4992469;28;20278;-69
2022/07/27 03:28:07;;;;;;;1999.90;999.90;;;;;;;;;;4994437;28;20571;-70
2022/07/27 03:30:52;;;;;;;1999.90;999.90;;;;;;;;;;4994907;28;20214;-69
2022/07/27 03:33:37;;;;;;;1999.90;999.90;;;;;;;;;;4992644;28;21076;-69
2022/07/27 03:36:23;;;;;;;1999.90;999.90;;;;;;;;;;4993244;28;20218;-69
2022/07/27 03:39:08;;;;;;;1999.90;999.90;;;;;;;;;;4989037;28;20321;-69
2022/07/27 03:41:53;;;;;;;1999.90;999.90;;;;;;;;;;4982988;28;20342;-70
2022/07/27 03:44:38;;;;;;;1999.90;999.90;;;;;;;;;;4975018;28;20259;-70
2022/07/27 03:47:23;;;;;;;1999.90;999.90;;;;;;;;;;4975047;28;20210;-70
2022/07/27 03:50:08;;;;;;;1999.90;999.90;;;;;;;;;;4979143;28;20445;-69
2022/07/27 03:52:55;;;;;;;1999.90;999.90;;;;;;;;;;4982777;28;20347;-70
2022/07/27 03:55:40;;;;;;;1999.90;999.90;;;;;;;;;;4974849;28;20207;-70
2022/07/27 03:58:25;;;;;;;1999.90;999.90;;;;;;;;;;4974337;28;20259;-70
2022/07/27 04:01:10;;;;;;;1999.90;999.90;;;;;;;;;;4974736;28;20339;-70
2022/07/27 04:03:55;;;;;;;1999.90;999.90;;;;;;;;;;4976281;28;20227;-70
2022/07/27 04:06:40;;;;;;;1999.90;999.90;;;;;;;;;;4985754;28;20213;-70
2022/07/27 04:09:27;;;;;;;1999.90;999.90;;;;;;;;;;4993604;28;20226;-70
2022/07/27 04:12:12;;;;;;;1999.90;999.90;;;;;;;;;;4993872;28;20607;-70
2022/07/27 04:14:57;;;;;;;1999.90;999.90;;;;;;;;;;4993757;28;20210;-70
2022/07/27 04:17:42;;;;;;;1999.90;999.90;;;;;;;;;;4993805;28;20210;-70
2022/07/27 04:20:27;;;;;;;1999.90;999.90;;;;;;;;;;4983528;28;20636;-70
2022/07/27 04:23:11;;;;;;;1999.90;999.90;;;;;;;;;;4992601;28;20219;-70
2022/07/27 04:25:58;;;;;;;1999.90;999.90;;;;;;;;;;4982086;28;20261;-70
2022/07/27 04:28:42;;;;;;;1999.90;999.90;;;;;;;;;;4973816;28;20313;-70
2022/07/27 04:31:27;;;;;;;1999.90;999.90;;;;;;;;;;4988897;28;20305;-70
2022/07/27 04:34:12;;;;;;;1999.90;999.90;;;;;;;;;;4993139;28;20615;-70
2022/07/27 04:36:57;;;;;;;1999.90;999.90;;;;;;;;;;4993478;28;20794;-71
2022/07/27 04:39:42;;;;;;;1999.90;999.90;;;;;;;;;;4992777;28;20608;-70
2022/07/27 04:42:29;;;;;;;1999.90;999.90;;;;;;;;;;4990400;28;20211;-70
2022/07/27 04:45:14;;;;;;;1999.90;999.90;;;;;;;;;;4990501;28;20277;-70
2022/07/27 04:47:59;;;;;;;1999.90;999.90;;;;;;;;;;4988288;28;20234;-69
2022/07/27 04:50:45;;;;;;;1999.90;999.90;;;;;;;;;;4991642;28;20214;-69
2022/07/27 04:53:30;;;;;;;1999.90;999.90;;;;;;;;;;4991651;28;20732;-70
2022/07/27 04:56:15;;;;;;;1999.90;999.90;;;;;;;;;;4987394;28;20218;-70
2022/07/27 04:59:02;;;;;;;1999.90;999.90;;;;;;;;;;4991053;28;20418;-70
2022/07/27 05:01:47;;;;;;;1999.90;999.90;;;;;;;;;;4992826;28;20235;-70
2022/07/27 05:04:32;;;;;;;1999.90;999.90;;;;;;;;;;4993024;28;20210;-70
2022/07/27 05:07:16;;;;;;;1999.90;999.90;;;;;;;;;;4992484;28;20218;-70
2022/07/27 05:10:01;;;;;;;1999.90;999.90;;;;;;;;;;4991945;28;20293;-69
2022/07/27 05:12:48;;;;;;;1999.90;999.90;;;;;;;;;;4993035;28;20358;-70
2022/07/27 05:15:34;;;;;;;1999.90;999.90;;;;;;;;;;4992983;28;20221;-69
2022/07/27 05:18:19;;;;;;;1999.90;999.90;;;;;;;;;;4990235;28;20213;-69
2022/07/27 05:21:04;;;;;;;1999.90;999.90;;;;;;;;;;4984653;28;20977;-70
2022/07/27 05:23:50;;;;;;;1999.90;999.90;;;;;;;;;;4989569;28;20597;-69
2022/07/27 05:26:35;;;;;;;1999.90;999.90;;;;;;;;;;4991414;28;20211;-70
2022/07/27 05:29:20;;;;;;;1999.90;999.90;;;;;;;;;;4989826;28;20230;-70
2022/07/27 05:32:07;;;;;;;1999.90;999.90;;;;;;;;;;4991475;28;20214;-70
2022/07/27 05:34:52;;;;;;;1999.90;999.90;;;;;;;;;;4991071;28;20218;-70
2022/07/27 05:37:37;;;;;;;1999.90;999.90;;;;;;;;;;4991136;28;20214;-69
2022/07/27 05:40:22;;;;;;;1999.90;999.90;;;;;;;;;;4989796;28;20421;-69
2022/07/27 05:43:07;;;;;;;1999.90;999.90;;;;;;;;;;4991493;28;20198;-70
2022/07/27 05:45:52;;;;;;;1999.90;999.90;;;;;;;;;;4988282;28;20259;-69
2022/07/27 05:48:38;;;;;;;1999.90;999.90;;;;;;;;;;4990782;28;20215;-69
2022/07/27 05:51:23;;;;;;;1999.90;999.90;;;;;;;;;;4991266;28;20685;-69
2022/07/27 05:54:08;;;;;;;1999.90;999.90;;;;;;;;;;4990936;28;20230;-70
2022/07/27 05:56:53;;;;;;;1999.90;999.90;;;;;;;;;;4994619;28;20211;-69
2022/07/27 05:59:38;;;;;;;1999.90;999.90;;;;;;;;;;4995056;28;20227;-70
2022/07/27 06:02:23;;;;;;;1999.90;999.90;;;;;;;;;;4990010;28;20211;-70
2022/07/27 06:05:10;;;;;;;1999.90;999.90;;;;;;;;;;4994927;28;20211;-70
2022/07/27 06:08:02;;;;;;;1999.90;999.90;;;;;;;;;;4991339;28;20239;-69
2022/07/27 06:10:47;;;;;;;1999.90;999.90;;;;;;;;;;4995094;28;20288;-70
2022/07/27 06:13:34;;;;;;;1999.90;999.90;;;;;;;;;;4994527;28;20310;-70
2022/07/27 06:16:19;;;;;;;1999.90;999.90;;;;;;;;;;4994500;28;21043;-69
2022/07/27 06:19:04;;;;;;;1999.90;999.90;;;;;;;;;;4993661;28;20227;-70
2022/07/27 06:21:51;;;;;;;1999.90;999.90;;;;;;;;;;4994059;28;20219;-70
2022/07/27 06:24:36;;;;;;;1999.90;999.90;;;;;;;;;;4994744;28;20203;-69
2022/07/27 06:27:21;;;;;;;1999.90;999.90;;;;;;;;;;4994878;28;20335;-69
2022/07/27 06:30:06;;;;;;;1999.90;999.90;;;;;;;;;;4993455;28;20250;-70
2022/07/27 06:32:51;;;;;;;1999.90;999.90;;;;;;;;;;4992185;28;20239;-66
2022/07/27 06:35:36;;;;;;;1999.90;999.90;;;;;;;;;;4980292;28;20437;-69
2022/07/27 06:38:23;;;;;;;1999.90;999.90;;;;;;;;;;4990306;28;20207;-70
2022/07/27 06:41:09;;;;;;;1999.90;999.90;;;;;;;;;;4994267;28;20210;-71
2022/07/27 06:43:54;;;;;;;1999.90;999.90;;;;;;;;;;4992641;28;20618;-72
2022/07/27 06:46:39;;;;;;;1999.90;999.90;;;;;;;;;;4995454;28;20297;-73
2022/07/27 06:49:23;;;;;;;1999.90;999.90;;;;;;;;;;4995159;28;20227;-73
2022/07/27 06:52:08;;;;;;;1999.90;999.90;;;;;;;;;;4995185;28;20699;-73
2022/07/27 06:54:55;;;;;;;1999.90;999.90;;;;;;;;;;4995208;28;20572;-73
2022/07/27 06:57:41;;;;;;;1999.90;999.90;;;;;;;;;;4995205;28;20208;-73
2022/07/27 07:00:26;;;;;;;1999.90;999.90;;;;;;;;;;4993277;28;20220;-72
2022/07/27 07:03:11;;;;;;;1999.90;999.90;;;;;;;;;;4993227;28;20207;-73
2022/07/27 07:05:57;;;;;;;1999.90;999.90;;;;;;;;;;4992830;28;20439;-72
2022/07/27 07:08:41;;;;;;;1999.90;999.90;;;;;;;;;;4989364;28;20228;-72
2022/07/27 07:11:28;;;;;;;1999.90;999.90;;;;;;;;;;4992604;28;20921;-73
2022/07/27 07:14:13;;;;;;;1999.90;999.90;;;;;;;;;;4993358;28;20229;-73
2022/07/27 07:17:00;;;;;;;1999.90;999.90;;;;;;;;;;4993957;28;20291;-73
2022/07/27 07:19:45;;;;;;;1999.90;999.90;;;;;;;;;;4991473;28;20303;-72
2022/07/27 07:22:32;;;;;;;1999.90;999.90;;;;;;;;;;4990829;28;20615;-73
2022/07/27 07:25:17;;;;;;;1999.90;999.90;;;;;;;;;;4991317;28;20204;-73
2022/07/27 07:28:03;;;;;;;1999.90;999.90;;;;;;;;;;4974480;28;20556;-74
2022/07/27 07:30:48;;;;;;;1999.90;999.90;;;;;;;;;;4975130;28;20206;-73
2022/07/27 07:33:33;;;;;;;1999.90;999.90;;;;;;;;;;4975316;28;20221;-73
2022/07/27 07:36:18;;;;;;;1999.90;999.90;;;;;;;;;;4989649;28;20210;-72
2022/07/27 07:39:03;;;;;;;1999.90;999.90;;;;;;;;;;4988279;28;20598;-73
2022/07/27 07:41:49;;;;;;;1999.90;999.90;;;;;;;;;;4989006;28;20209;-73
2022/07/27 07:44:35;;;;;;;1999.90;999.90;;;;;;;;;;4987743;28;20205;-72
2022/07/27 07:47:20;;;;;;;1999.90;999.90;;;;;;;;;;4984710;28;20797;-73
2022/07/27 07:50:05;;;;;;;1999.90;999.90;;;;;;;;;;4990591;28;20805;-73
2022/07/27 07:52:51;;;;;;;1999.90;999.90;;;;;;;;;;4991056;28;20289;-72
2022/07/27 07:55:36;;;;;;;1999.90;999.90;;;;;;;;;;4989862;28;20708;-74
2022/07/27 07:58:20;;;;;;;1999.90;999.90;;;;;;;;;;4986258;28;20335;-73
2022/07/27 08:01:07;;;;;;;1999.90;999.90;;;;;;;;;;4985571;28;20219;-73
2022/07/27 08:03:52;;;;;;;1999.90;999.90;;;;;;;;;;4987036;28;20266;-73
2022/07/27 08:06:38;;;;;;;1999.90;999.90;;;;;;;;;;4991295;28;20206;-74
2022/07/27 08:09:25;;;;;;;1999.90;999.90;;;;;;;;;;4988430;28;20235;-72
2022/07/27 08:12:10;;;;;;;1999.90;999.90;;;;;;;;;;4986376;28;20702;-72
2022/07/27 08:14:55;;;;;;;1999.90;999.90;;;;;;;;;;4975187;28;20276;-73
2022/07/27 08:17:42;;;;;;;1999.90;999.90;;;;;;;;;;4994747;28;20327;-73
2022/07/27 08:20:27;;;;;;;1999.90;999.90;;;;;;;;;;4996824;28;20228;-72
2022/07/27 08:23:12;;;;;;;1999.90;999.90;;;;;;;;;;4995437;28;20873;-73
2022/07/27 08:25:57;;;;;;;1999.90;999.90;;;;;;;;;;4996083;28;20207;-72
2022/07/27 08:28:43;;;;;;;1999.90;999.90;;;;;;;;;;4993774;28;20302;-70
2022/07/27 08:31:28;;;;;;;1999.90;999.90;;;;;;;;;;4992457;28;20677;-71
2022/07/27 08:34:15;;;;;;;1999.90;999.90;;;;;;;;;;4977426;28;20231;-71
2022/07/27 08:37:00;;;;;;;1999.90;999.90;;;;;;;;;;4979133;28;20216;-72
2022/07/27 08:39:45;;;;;;;1999.90;999.90;;;;;;;;;;4981392;28;20232;-70
2022/07/27 08:42:30;;;;;;;1999.90;999.90;;;;;;;;;;4981150;28;20213;-70
2022/07/27 08:45:17;;;;;;;1999.90;999.90;;;;;;;;;;4992202;28;20215;-70
2022/07/27 08:48:03;;;;;;;1999.90;999.90;;;;;;;;;;4987274;28;20622;-71
2022/07/27 08:50:50;;;;;;;1999.90;999.90;;;;;;;;;;4992991;28;20285;-70
2022/07/27 08:53:35;;;;;;;1999.90;999.90;;;;;;;;;;4991965;28;20714;-70
2022/07/27 08:56:20;;;;;;;1999.90;999.90;;;;;;;;;;4990446;28;20282;-72
2022/07/27 08:59:05;;;;;;;1999.90;999.90;;;;;;;;;;4991612;28;20588;-72
2022/07/27 09:01:50;;;;;;;1999.90;999.90;;;;;;;;;;4972945;28;20222;-72
2022/07/27 09:04:35;;;;;;;1999.90;999.90;;;;;;;;;;4988012;28;20211;-72
2022/07/27 09:07:28;;;;;;;1999.90;999.90;;;;;;;;;;4992495;28;20411;-72
2022/07/27 09:10:27;;;;;;;1999.90;999.90;;;;;;;;;;4992369;28;20235;-72
2022/07/27 09:13:17;;;;;;;1999.90;999.90;;;;;;;;;;4988272;28;20282;-73
2022/07/27 09:16:03;;;;;;;1999.90;999.90;;;;;;;;;;4984694;28;20461;-72
2022/07/27 09:18:57;;;;;;;1999.90;999.90;;;;;;;;;;4985014;28;20379;-72
2022/07/27 09:21:43;;;;;;;1999.90;999.90;;;;;;;;;;4989021;28;20276;-73
2022/07/27 09:24:29;;;;;;;1999.90;999.90;;;;;;;;;;4982465;28;20211;-72
2022/07/27 09:27:14;;;;;;;1999.90;999.90;;;;;;;;;;4989479;28;20218;-72
2022/07/27 09:30:00;;;;;;;1999.90;999.90;;;;;;;;;;4986655;28;20290;-73
2022/07/27 09:32:52;;;;;;;1999.90;999.90;;;;;;;;;;4972752;28;20589;-75
2022/07/27 09:35:37;;;;;;;1999.90;999.90;;;;;;;;;;4972345;28;20608;-73
2022/07/27 09:38:23;;;;;;;1999.90;999.90;;;;;;;;;;4983197;28;20287;-74
2022/07/27 09:41:10;;;;;;;1999.90;999.90;;;;;;;;;;4989231;28;20701;-74
2022/07/27 09:43:55;;;;;;;1999.90;999.90;;;;;;;;;;4991338;28;20202;-73
2022/07/27 09:46:41;;;;;;;1999.90;999.90;;;;;;;;;;4972846;28;20583;-74
2022/07/27 09:49:30;;;;;;;1999.90;999.90;;;;;;;;;;4989289;28;20312;-73
2022/07/27 09:52:22;;;;;;;1999.90;999.90;;;;;;;;;;4992010;28;20233;-74
2022/07/27 09:55:07;;;;;;;1999.90;999.90;;;;;;;;;;4991913;28;20765;-73
2022/07/27 09:57:55;;;;;;;1999.90;999.90;;;;;;;;;;4991715;28;20206;-73
2022/07/27 10:00:40;;;;;;;1999.90;999.90;;;;;;;;;;4991687;28;20230;-73
2022/07/27 10:03:25;;;;;;;1999.90;999.90;;;;;;;;;;4991853;28;20203;-73
2022/07/27 10:06:11;;;;;;;1999.90;999.90;;;;;;;;;;4992131;28;20334;-74
2022/07/27 10:08:57;;;;;;;1999.90;999.90;;;;;;;;;;4991253;28;20461;-74
2022/07/27 10:11:42;;;;;;;1999.90;999.90;;;;;;;;;;4986756;28;20204;-73
2022/07/27 10:14:28;;;;;;;1999.90;999.90;;;;;;;;;;4988498;28;20226;-73
2022/07/27 10:17:13;;;;;;;1999.90;999.90;;;;;;;;;;4990000;28;20289;-74
2022/07/27 10:20:02;;;;;;;1999.90;999.90;;;;;;;;;;4991119;28;20298;-73
2022/07/27 10:22:48;;;;;;;1999.90;999.90;;;;;;;;;;4984925;28;20219;-73
2022/07/27 10:25:33;;;;;;;1999.90;999.90;;;;;;;;;;4992131;28;20204;-73
2022/07/27 10:28:18;;;;;;;1999.90;999.90;;;;;;;;;;4990643;28;20222;-75
2022/07/27 10:31:17;;;;;;;1999.90;999.90;;;;;;;;;;4987098;28;20219;-75
2022/07/27 10:34:02;;;;;;;1999.90;999.90;;;;;;;;;;4991872;28;20587;-74
2022/07/27 10:36:51;;;;;;;1999.90;999.90;;;;;;;;;;4991567;28;20210;-72
2022/07/27 10:39:38;;;;;;;1999.90;999.90;;;;;;;;;;4981608;28;20248;-74
2022/07/27 10:42:27;;;;;;;1999.90;999.90;;;;;;;;;;4991231;28;20711;-74
2022/07/27 10:45:13;;;;;;;1999.90;999.90;;;;;;;;;;4991313;28;20281;-73
2022/07/27 10:47:59;;;;;;;1999.90;999.90;;;;;;;;;;4992877;28;20256;-72
2022/07/27 10:50:47;;;;;;;1999.90;999.90;;;;;;;;;;4995348;28;20278;-73
2022/07/27 10:53:33;;;;;;;1999.90;999.90;;;;;;;;;;4995474;28;20700;-73
2022/07/27 10:56:38;;;;;;;1999.90;999.90;;;;;;;;;;4994049;28;20347;-72
2022/07/27 10:59:43;;;;;;;1999.90;999.90;;;;;;;;;;4992319;28;20250;-72
2022/07/27 11:02:37;;;;;;;1999.90;999.90;;;;;;;;;;4995046;28;20720;-72
2022/07/27 11:05:22;;;;;;;1999.90;999.90;;;;;;;;;;4993767;28;20449;-73
2022/07/27 11:08:07;;;;;;;1999.90;999.90;;;;;;;;;;4994944;28;20218;-72
2022/07/27 11:10:52;;;;;;;1999.90;999.90;;;;;;;;;;4995108;28;20573;-73
2022/07/27 11:13:37;;;;;;;1999.90;999.90;;;;;;;;;;4994006;28;20352;-72
2022/07/27 11:16:23;;;;;;;1999.90;999.90;;;;;;;;;;4994128;28;20211;-73
2022/07/27 11:19:09;;;;;;;1999.90;999.90;;;;;;;;;;4979515;28;20593;-72
2022/07/27 11:21:54;;;;;;;1999.90;999.90;;;;;;;;;;4975294;28;20692;-73
2022/07/27 11:24:39;;;;;;;1999.90;999.90;;;;;;;;;;4984605;28;20324;-73
2022/07/27 11:27:24;;;;;;;1999.90;999.90;;;;;;;;;;4991953;28;20206;-73
2022/07/27 11:30:20;;;;;;;1999.90;999.90;;;;;;;;;;4992454;28;20727;-73
2022/07/27 11:33:06;;;;;;;1999.90;999.90;;;;;;;;;;4990106;28;20214;-73
2022/07/27 11:35:54;;;;;;;1999.90;999.90;;;;;;;;;;4991476;28;20254;-73
2022/07/27 11:38:46;;;;;;;1999.90;999.90;;;;;;;;;;4992747;28;20214;-73
2022/07/27 11:41:31;;;;;;;1999.90;999.90;;;;;;;;;;4989147;28;20580;-73
2022/07/27 11:44:17;;;;;;;1999.90;999.90;;;;;;;;;;4990082;28;20215;-74
2022/07/27 11:47:02;;;;;;;1999.90;999.90;;;;;;;;;;4991968;28;20218;-74
2022/07/27 11:49:47;;;;;;;1999.90;999.90;;;;;;;;;;4991719;28;20651;-73
2022/07/27 11:52:34;;;;;;;1999.90;999.90;;;;;;;;;;4991636;28;20231;-73
2022/07/27 11:55:19;;;;;;;1999.90;999.90;;;;;;;;;;4991547;28;20274;-73
2022/07/27 11:58:04;;;;;;;1999.90;999.90;;;;;;;;;;4991637;28;20211;-73
2022/07/27 12:00:49;;;;;;;1999.90;999.90;;;;;;;;;;4991918;28;20263;-74
2022/07/27 12:03:33;;;;;;;1999.90;999.90;;;;;;;;;;4988362;28;20294;-73
2022/07/27 12:06:18;;;;;;;1999.90;999.90;;;;;;;;;;4991998;28;20332;-73
2022/07/27 12:09:06;;;;;;;1999.90;999.90;;;;;;;;;;4991560;28;20332;-73
2022/07/27 12:11:53;;;;;;;1999.90;999.90;;;;;;;;;;4988206;28;20207;-73
2022/07/27 12:14:40;;;;;;;1999.90;999.90;;;;;;;;;;4988989;28;20222;-73
2022/07/27 12:17:26;;;;;;;1999.90;999.90;;;;;;;;;;4991821;28;20323;-73
2022/07/27 12:20:12;;;;;;;1999.90;999.90;;;;;;;;;;4989948;28;20289;-73
2022/07/27 12:23:02;;;;;;;1999.90;999.90;;;;;;;;;;4989910;28;20221;-73
2022/07/27 12:25:49;;;;;;;1999.90;999.90;;;;;;;;;;4990436;28;20319;-74
2022/07/27 12:28:34;;;;;;;1999.90;999.90;;;;;;;;;;4991012;28;20347;-73
2022/07/27 12:31:19;;;;;;;1999.90;999.90;;;;;;;;;;4991569;28;20226;-73
2022/07/27 12:34:05;;;;;;;1999.90;999.90;;;;;;;;;;4988496;28;20777;-73
2022/07/27 12:36:50;;;;;;;1999.90;999.90;;;;;;;;;;4982349;28;20211;-74
2022/07/27 12:39:35;;;;;;;1999.90;999.90;;;;;;;;;;4955967;28;1056139;-73
2022/07/27 12:42:31;;;;;;;1999.90;999.90;;;;;;;;;;4991724;28;20282;-73
2022/07/27 12:45:18;;;;;;;1999.90;999.90;;;;;;;;;;4991978;28;20280;-73
2022/07/27 12:48:11;;;;;;;1999.90;999.90;;;;;;;;;;4987747;28;20280;-72
2022/07/27 12:50:58;;;;;;;1999.90;999.90;;;;;;;;;;4981681;28;20495;-73
2022/07/27 12:53:43;;;;;;;1999.90;999.90;;;;;;;;;;4973705;28;20564;-73
2022/07/27 12:56:28;;;;;;;1999.90;999.90;;;;;;;;;;4991097;28;20231;-72
2022/07/27 12:59:16;;;;;;;1999.90;999.90;;;;;;;;;;4973267;28;20223;-72
2022/07/27 13:02:00;;;;;;;1999.90;999.90;;;;;;;;;;4988905;28;20215;-73
2022/07/27 13:04:46;;;;;;;1999.90;999.90;;;;;;;;;;4973008;28;20212;-72
2022/07/27 13:07:31;;;;;;;1999.90;999.90;;;;;;;;;;4982696;28;20765;-72
2022/07/27 13:10:18;;;;;;;1999.90;999.90;;;;;;;;;;4976455;28;20543;-73
2022/07/27 13:13:03;;;;;;;1999.90;999.90;;;;;;;;;;4972853;28;20211;-72
2022/07/27 13:15:49;;;;;;;1999.90;999.90;;;;;;;;;;4979190;28;20535;-71
2022/07/27 13:18:34;;;;;;;1999.90;999.90;;;;;;;;;;4979909;28;20211;-72
2022/07/27 13:21:19;;;;;;;1999.90;999.90;;;;;;;;;;4981988;28;20214;-72
2022/07/27 13:24:05;;;;;;;1999.90;999.90;;;;;;;;;;4979969;28;20223;-71
2022/07/27 13:26:51;;;;;;;1999.90;999.90;;;;;;;;;;4983940;28;20212;-73
2022/07/27 13:29:36;;;;;;;1999.90;999.90;;;;;;;;;;4982727;28;20432;-72
2022/07/27 13:32:22;;;;;;;1999.90;999.90;;;;;;;;;;4982940;28;20215;-70
2022/07/27 13:35:08;;;;;;;1999.90;999.90;;;;;;;;;;4982238;28;20222;-73
2022/07/27 13:37:53;;;;;;;1999.90;999.90;;;;;;;;;;4977084;28;20223;-72
2022/07/27 13:40:38;;;;;;;1999.90;999.90;;;;;;;;;;4987247;28;20230;-71
2022/07/27 13:43:23;;;;;;;1999.90;999.90;;;;;;;;;;4976980;28;20295;-71
2022/07/27 13:46:09;;;;;;;1999.90;999.90;;;;;;;;;;4977795;28;20214;-72
2022/07/27 13:48:55;;;;;;;1999.90;999.90;;;;;;;;;;4973852;28;20317;-72
2022/07/27 13:51:40;;;;;;;1999.90;999.90;;;;;;;;;;4976408;28;20340;-72
2022/07/27 13:54:26;;;;;;;1999.90;999.90;;;;;;;;;;4983550;28;20287;-71
2022/07/27 13:57:11;;;;;;;1999.90;999.90;;;;;;;;;;4980089;28;20695;-72
2022/07/27 13:59:58;;;;;;;1999.90;999.90;;;;;;;;;;4981084;28;20567;-72
2022/07/27 14:02:43;;;;;;;1999.90;999.90;;;;;;;;;;4980803;28;20347;-72
2022/07/27 14:05:29;;;;;;;1999.90;999.90;;;;;;;;;;4985254;28;20200;-72
2022/07/27 14:08:14;;;;;;;1999.90;999.90;;;;;;;;;;4988886;28;20222;-73
2022/07/27 14:10:59;;;;;;;1999.90;999.90;;;;;;;;;;4987399;28;20222;-72
2022/07/27 14:13:44;;;;;;;1999.90;999.90;;;;;;;;;;4986292;28;20232;-72
2022/07/27 14:16:29;;;;;;;1999.90;999.90;;;;;;;;;;4977788;28;20224;-72
2022/07/27 14:19:14;;;;;;;1999.90;999.90;;;;;;;;;;4981529;28;20236;-72
2022/07/27 14:22:01;;;;;;;1999.90;999.90;;;;;;;;;;4978209;28;20772;-71
2022/07/27 14:24:46;;;;;;;1999.90;999.90;;;;;;;;;;4979475;28;20219;-72
2022/07/27 14:27:31;;;;;;;1999.90;999.90;;;;;;;;;;4990846;28;20215;-71
2022/07/27 14:30:16;;;;;;;1999.90;999.90;;;;;;;;;;4985913;28;20323;-71
2022/07/27 14:33:01;;;;;;;1999.90;999.90;;;;;;;;;;4990716;28;20273;-72
2022/07/27 14:35:47;;;;;;;1999.90;999.90;;;;;;;;;;4980784;28;20709;-72
2022/07/27 14:38:35;;;;;;;1999.90;999.90;;;;;;;;;;4980180;28;20212;-72
2022/07/27 14:41:20;;;;;;;1999.90;999.90;;;;;;;;;;4982685;28;20204;-72
2022/07/27 14:44:06;;;;;;;1999.90;999.90;;;;;;;;;;4979207;28;20235;-72
2022/07/27 14:46:51;;;;;;;1999.90;999.90;;;;;;;;;;4989347;28;20210;-71
2022/07/27 14:49:36;;;;;;;1999.90;999.90;;;;;;;;;;4986564;28;20306;-73
2022/07/27 14:52:21;;;;;;;1999.90;999.90;;;;;;;;;;4983580;28;20211;-71
2022/07/27 14:55:08;;;;;;;1999.90;999.90;;;;;;;;;;4990217;28;20228;-72
2022/07/27 14:57:53;;;;;;;1999.90;999.90;;;;;;;;;;4978688;28;20698;-72
2022/07/27 15:00:38;;;;;;;1999.90;999.90;;;;;;;;;;4980170;28;20298;-73
2022/07/27 15:03:23;;;;;;;1999.90;999.90;;;;;;;;;;4983875;28;20346;-72
2022/07/27 15:06:08;;;;;;;1999.90;999.90;;;;;;;;;;4988415;28;20227;-72
2022/07/27 15:08:52;;;;;;;1999.90;999.90;;;;;;;;;;4979462;28;20232;-73
2022/07/27 15:11:39;;;;;;;1999.90;999.90;;;;;;;;;;4978806;28;20204;-72
2022/07/27 15:14:24;;;;;;;1999.90;999.90;;;;;;;;;;4990512;28;20439;-71
2022/07/27 15:17:09;;;;;;;1999.90;999.90;;;;;;;;;;4986240;28;20223;-72
2022/07/27 15:19:54;;;;;;;1999.90;999.90;;;;;;;;;;4991209;28;20226;-71
2022/07/27 15:22:39;;;;;;;1999.90;999.90;;;;;;;;;;4982620;28;20713;-71
2022/07/27 15:25:24;;;;;;;1999.90;999.90;;;;;;;;;;4985453;28;20207;-71
2022/07/27 15:28:10;;;;;;;1999.90;999.90;;;;;;;;;;4973294;28;20317;-71
2022/07/27 15:30:55;;;;;;;1999.90;999.90;;;;;;;;;;4978057;28;20215;-71
2022/07/27 15:33:40;;;;;;;1999.90;999.90;;;;;;;;;;4982918;28;20212;-72
2022/07/27 15:36:25;;;;;;;1999.90;999.90;;;;;;;;;;4983582;28;20286;-71
2022/07/27 15:39:10;;;;;;;1999.90;999.90;;;;;;;;;;4981950;28;20264;-71
2022/07/27 15:41:55;;;;;;;1999.90;999.90;;;;;;;;;;4982309;28;20207;-72
2022/07/27 15:44:41;;;;;;;1999.90;999.90;;;;;;;;;;4985993;28;20219;-71
2022/07/27 15:47:27;;;;;;;1999.90;999.90;;;;;;;;;;4986529;28;20334;-71
2022/07/27 15:50:12;;;;;;;1999.90;999.90;;;;;;;;;;4978703;28;20247;-71
2022/07/27 15:52:57;;;;;;;1999.90;999.90;;;;;;;;;;4982045;28;20210;-71
2022/07/27 15:55:42;;;;;;;1999.90;999.90;;;;;;;;;;4982664;28;20764;-71
2022/07/27 15:58:27;;;;;;;1999.90;999.90;;;;;;;;;;4983974;28;20255;-72
2022/07/27 16:01:13;;;;;;;1999.90;999.90;;;;;;;;;;4985771;28;20219;-71
2022/07/27 16:03:58;;;;;;;1999.90;999.90;;;;;;;;;;4982301;28;20805;-72
2022/07/27 16:06:43;;;;;;;1999.90;999.90;;;;;;;;;;4981845;28;20408;-73
2022/07/27 16:09:28;;;;;;;1999.90;999.90;;;;;;;;;;4984131;28;20729;-73
2022/07/27 16:12:15;;;;;;;1999.90;999.90;;;;;;;;;;4983980;28;20227;-72
2022/07/27 16:15:00;;;;;;;1999.90;999.90;;;;;;;;;;4977394;28;20224;-72
2022/07/27 16:17:46;;;;;;;1999.90;999.90;;;;;;;;;;4980724;28;20227;-71
2022/07/27 16:20:31;;;;;;;1999.90;999.90;;;;;;;;;;4974377;28;20655;-71
2022/07/27 16:23:16;;;;;;;1999.90;999.90;;;;;;;;;;4986178;28;20220;-71
2022/07/27 16:26:02;;;;;;;1999.90;999.90;;;;;;;;;;4984282;28;20273;-71
2022/07/27 16:28:48;;;;;;;1999.90;999.90;;;;;;;;;;4980648;28;20238;-70
2022/07/27 16:31:33;;;;;;;1999.90;999.90;;;;;;;;;;4984351;28;20644;-70
2022/07/27 16:34:20;;;;;;;1999.90;999.90;;;;;;;;;;4982305;28;20207;-70
2022/07/27 16:37:04;;;;;;;1999.90;999.90;;;;;;;;;;4980162;28;20622;-71
2022/07/27 16:39:49;;;;;;;1999.90;999.90;;;;;;;;;;4971960;28;20286;-71
2022/07/27 16:42:34;;;;;;;1999.90;999.90;;;;;;;;;;4982632;28;20207;-72
2022/07/27 16:45:19;;;;;;;1999.90;999.90;;;;;;;;;;4987952;28;20561;-71
2022/07/27 16:48:04;;;;;;;1999.90;999.90;;;;;;;;;;4978322;28;20199;-71
2022/07/27 16:50:51;;;;;;;1999.90;999.90;;;;;;;;;;4983324;28;20203;-71
2022/07/27 16:53:37;;;;;;;1999.90;999.90;;;;;;;;;;4974513;28;20567;-71
2022/07/27 16:56:22;;;;;;;1999.90;999.90;;;;;;;;;;4975475;28;20234;-71
2022/07/27 16:59:07;;;;;;;1999.90;999.90;;;;;;;;;;4972302;28;20510;-72
2022/07/27 17:01:54;;;;;;;1999.90;999.90;;;;;;;;;;4978537;28;20572;-72
2022/07/27 17:04:38;;;;;;;1999.90;999.90;;;;;;;;;;4984400;28;20207;-70